Time;durP1;ratioP1;P1;durP2;ratioP2;P2;SDS_P1;SDS_P2;PMS_P1;PMS_P2;Temp;Humidity;BMP_temperature;BMP_pressure;BME280_temperature;BME280_humidity;BME280_pressure;Samples;Min_cycle;Max_cycle;Signal;HPM_P1;HPM_P2
2023/07/12 00:00:53;;;;;;;6.55;2.03;;;;;;;18.99;79.06;100915.78;5096306;28;20039;-86
2023/07/12 00:03:19;;;;;;;7.53;1.95;;;;;;;18.98;79.89;100913.22;5096659;28;20051;-85
2023/07/12 00:05:46;;;;;;;5.20;2.10;;;;;;;18.97;80.05;100914.19;5097265;28;20051;-85
2023/07/12 00:08:25;;;;;;;6.97;2.75;;;;;;;18.95;80.26;100919.59;5096769;28;20416;-85
2023/07/12 00:10:54;;;;;;;3.95;1.63;;;;;;;18.95;80.33;100932.88;5097513;28;20059;-85
2023/07/12 00:13:19;;;;;;;5.82;1.98;;;;;;;18.95;81.09;100934.69;5094790;28;20036;-85
2023/07/12 00:15:47;;;;;;;6.65;2.35;;;;;;;18.95;81.18;100932.03;5104356;28;20081;-85
2023/07/12 00:18:16;;;;;;;5.40;1.90;;;;;;;18.96;80.88;100920.47;5105574;28;20035;-85
2023/07/12 00:20:42;;;;;;;10.95;3.00;;;;;;;18.95;81.31;100895.72;5109803;28;20284;-85
2023/07/12 00:23:12;;;;;;;8.25;2.33;;;;;;;18.93;81.72;100883.53;5097367;28;20361;-85
2023/07/12 00:25:38;;;;;;;5.97;1.80;;;;;;;18.92;81.77;100863.28;5098462;28;20038;-85
2023/07/12 00:28:17;;;;;;;4.85;2.63;;;;;;;18.91;82.29;100850.97;5099794;28;20058;-85
2023/07/12 00:30:42;;;;;;;8.45;2.33;;;;;;;18.91;82.25;100862.41;5097201;28;20204;-86
2023/07/12 00:33:09;;;;;;;10.20;3.08;;;;;;;18.90;82.67;100852.78;5100907;28;20109;-85
2023/07/12 00:35:42;;;;;;;5.40;2.53;;;;;;;18.87;83.06;100847.69;5082911;28;20020;-86
2023/07/12 00:38:23;;;;;;;6.63;2.55;;;;;;;18.87;83.26;100849.50;5102879;28;20275;-86
2023/07/12 00:41:10;;;;;;;9.25;2.95;;;;;;;18.85;83.28;100840.84;5107682;28;20043;-85
2023/07/12 00:43:38;;;;;;;6.77;2.77;;;;;;;18.83;83.80;100867.47;5108432;28;20244;-85
2023/07/12 00:46:18;;;;;;;5.82;2.25;;;;;;;18.80;84.52;100884.41;5101015;28;20038;-86
2023/07/12 00:48:47;;;;;;;7.80;2.15;;;;;;;18.74;85.27;100895.50;5100844;28;20098;-86
2023/07/12 00:51:55;;;;;;;7.15;2.10;;;;;;;18.69;85.84;100894.16;5097672;28;20311;-86
2023/07/12 00:54:25;;;;;;;7.03;2.67;;;;;;;18.65;86.24;100900.66;5089458;28;20052;-86
2023/07/12 00:56:50;;;;;;;2.95;1.52;;;;;;;18.64;86.28;100881.22;5095306;28;20031;-86
2023/07/12 00:59:27;;;;;;;9.40;2.83;;;;;;;18.59;86.61;100878.91;5095344;28;20047;-86
2023/07/12 01:01:58;;;;;;;6.60;2.22;;;;;;;18.55;86.87;100885.38;5095950;28;20023;-86
2023/07/12 01:04:32;;;;;;;9.20;2.22;;;;;;;18.46;87.52;100877.28;5095321;28;20058;-86
2023/07/12 01:06:58;;;;;;;10.15;2.67;;;;;;;18.44;88.28;100869.41;5095767;28;20231;-86
2023/07/12 01:09:26;;;;;;;8.43;2.20;;;;;;;18.40;88.88;100865.31;5098139;28;20039;-86
2023/07/12 01:11:53;;;;;;;13.30;2.88;;;;;;;18.38;89.13;100877.84;5095646;28;20046;-86
2023/07/12 01:14:18;;;;;;;8.48;2.97;;;;;;;18.36;89.41;100893.00;5093859;28;20246;-86
2023/07/12 01:17:01;;;;;;;7.78;2.53;;;;;;;18.33;89.71;100925.03;5096027;28;20035;-86
2023/07/12 01:19:27;;;;;;;9.30;2.65;;;;;;;18.31;90.00;100919.00;5093167;28;20039;-86
2023/07/12 01:21:54;;;;;;;8.52;2.53;;;;;;;18.29;89.98;100907.66;5077587;28;20023;-86
2023/07/12 01:24:21;;;;;;;6.65;2.50;;;;;;;18.28;90.28;100916.56;5095678;28;20050;-86
2023/07/12 01:26:49;;;;;;;8.73;2.80;;;;;;;18.27;90.71;100891.03;5094969;28;20032;-86
2023/07/12 01:29:16;;;;;;;5.95;2.17;;;;;;;18.23;90.93;100909.78;5095347;28;20047;-86
2023/07/12 01:31:42;;;;;;;6.45;2.25;;;;;;;18.22;91.31;100910.75;5095183;28;20024;-86
2023/07/12 01:34:08;;;;;;;8.40;2.33;;;;;;;18.22;91.30;100905.44;5095054;28;20104;-86
2023/07/12 01:36:34;;;;;;;9.70;2.60;;;;;;;18.20;91.68;100893.25;5092227;28;20343;-86
2023/07/12 01:39:01;;;;;;;4.57;2.25;;;;;;;18.19;91.64;100887.13;5093003;28;20342;-87
2023/07/12 01:41:26;;;;;;;10.32;2.78;;;;;;;18.18;92.19;100892.53;5093687;28;20099;-86
2023/07/12 01:43:53;;;;;;;7.95;3.10;;;;;;;18.17;92.32;100878.44;5088970;28;20039;-86
2023/07/12 01:46:19;;;;;;;8.48;2.50;;;;;;;18.17;92.42;100901.44;5095121;28;20107;-86
2023/07/12 01:48:45;;;;;;;8.32;2.03;;;;;;;18.15;92.43;100866.25;5093590;28;20040;-86
2023/07/12 01:51:11;;;;;;;8.60;2.45;;;;;;;18.13;92.59;100860.22;5093395;28;20097;-86
2023/07/12 01:53:37;;;;;;;10.30;2.00;;;;;;;18.11;92.80;100860.31;5095202;28;20549;-86
2023/07/12 01:56:04;;;;;;;6.18;2.20;;;;;;;18.09;92.98;100862.22;5084629;28;20034;-86
2023/07/12 01:58:30;;;;;;;11.13;2.78;;;;;;;18.05;92.81;100857.28;5094706;28;20047;-86
2023/07/12 02:00:57;;;;;;;6.25;1.83;;;;;;;18.01;92.65;100844.25;5083272;28;20255;-86
2023/07/12 02:03:22;;;;;;;4.82;1.92;;;;;;;17.99;92.85;100859.41;5094838;28;20328;-86
2023/07/12 02:05:47;;;;;;;6.50;2.63;;;;;;;17.98;92.98;100854.22;5072314;28;20067;-86
2023/07/12 02:08:13;;;;;;;5.40;2.30;;;;;;;17.99;92.82;100853.25;5094880;28;20347;-86
2023/07/12 02:10:39;;;;;;;5.97;1.83;;;;;;;17.98;92.71;100859.50;5095743;28;20067;-86
2023/07/12 02:13:05;;;;;;;10.73;2.53;;;;;;;17.99;92.85;100866.47;5094145;28;20108;-85
2023/07/12 02:15:30;;;;;;;6.40;2.00;;;;;;;18.00;92.84;100866.38;5094575;28;20098;-86
2023/07/12 02:17:56;;;;;;;9.00;2.00;;;;;;;18.01;92.67;100872.56;5094887;28;20087;-85
2023/07/12 02:20:22;;;;;;;3.35;1.65;;;;;;;18.01;92.88;100877.84;5076543;28;20020;-86
2023/07/12 02:22:48;;;;;;;7.45;2.22;;;;;;;18.00;92.27;100876.16;5094420;28;20103;-85
2023/07/12 02:25:15;;;;;;;7.97;1.90;;;;;;;17.99;92.48;100874.44;5089687;28;20327;-86
2023/07/12 02:27:41;;;;;;;4.85;2.10;;;;;;;17.99;92.17;100882.38;5088746;28;20043;-86
2023/07/12 02:30:14;;;;;;;7.18;2.08;;;;;;;17.98;92.09;100884.19;5086649;28;20040;-86
2023/07/12 02:32:39;;;;;;;5.68;1.73;;;;;;;17.98;92.30;100870.09;5075876;28;20312;-85
2023/07/12 02:35:05;;;;;;;4.63;1.70;;;;;;;17.97;92.06;100863.97;5088931;28;20038;-86
2023/07/12 02:37:31;;;;;;;7.38;2.05;;;;;;;17.95;92.41;100871.16;5094712;28;20091;-85
2023/07/12 02:39:57;;;;;;;6.38;2.13;;;;;;;17.93;92.64;100874.88;5090637;28;20036;-85
2023/07/12 02:42:22;;;;;;;4.28;2.08;;;;;;;17.93;92.72;100872.22;5076443;28;20381;-85
2023/07/12 02:44:49;;;;;;;6.72;2.25;;;;;;;17.91;93.01;100867.03;5090357;28;20215;-86
2023/07/12 02:47:14;;;;;;;8.00;2.92;;;;;;;17.88;93.36;100877.84;5092887;28;20040;-85
2023/07/12 02:49:40;;;;;;;5.85;2.42;;;;;;;17.84;94.02;100885.16;5092704;28;20042;-86
2023/07/12 02:52:07;;;;;;;6.38;2.53;;;;;;;17.85;93.82;100883.38;5092220;28;20569;-86
2023/07/12 02:54:34;;;;;;;6.35;3.00;;;;;;;17.82;93.68;100879.09;5096886;28;20058;-86
2023/07/12 02:57:00;;;;;;;7.78;2.88;;;;;;;17.82;93.76;100875.59;5092600;28;20031;-85
2023/07/12 02:59:26;;;;;;;6.70;2.20;;;;;;;17.81;93.95;100871.28;5098134;28;20227;-87
2023/07/12 03:01:52;;;;;;;8.48;2.53;;;;;;;17.79;94.37;100873.16;5098325;28;20027;-87
2023/07/12 03:04:18;;;;;;;3.97;2.15;;;;;;;17.79;94.30;100876.69;5097047;28;20062;-88
2023/07/12 03:06:44;;;;;;;8.35;2.90;;;;;;;17.81;94.39;100874.78;5090551;28;20389;-88
2023/07/12 03:09:10;;;;;;;4.40;2.42;;;;;;;17.82;94.18;100870.31;5102049;28;20019;-87
2023/07/12 03:11:35;;;;;;;5.63;2.10;;;;;;;17.81;93.68;100874.78;5094932;28;20356;-87
2023/07/12 03:14:01;;;;;;;8.55;2.97;;;;;;;17.79;93.66;100871.38;5079539;28;20089;-88
2023/07/12 03:16:26;;;;;;;6.00;2.30;;;;;;;17.79;93.40;100876.69;5097948;28;20059;-88
2023/07/12 03:18:53;;;;;;;8.55;2.42;;;;;;;17.77;93.05;100875.09;5097734;28;20165;-87
2023/07/12 03:21:18;;;;;;;6.85;2.28;;;;;;;17.73;93.10;100869.16;5091107;28;20065;-88
2023/07/12 03:23:44;;;;;;;8.10;2.50;;;;;;;17.72;92.88;100879.84;5079923;28;20056;-88
2023/07/12 03:26:10;;;;;;;7.72;2.42;;;;;;;17.70;93.00;100882.63;5097008;28;20038;-88
2023/07/12 03:28:35;;;;;;;6.13;2.25;;;;;;;17.73;92.80;100876.25;5097942;28;20043;-87
2023/07/12 03:31:05;;;;;;;7.18;2.30;;;;;;;17.69;92.64;100875.63;5089505;28;20024;-87
2023/07/12 03:33:31;;;;;;;8.32;2.33;;;;;;;17.69;92.93;100880.09;5071973;28;20023;-88
2023/07/12 03:35:57;;;;;;;7.57;2.38;;;;;;;17.67;92.88;100889.94;5091710;28;20036;-87
2023/07/12 03:38:26;;;;;;;5.05;2.45;;;;;;;17.69;93.12;100890.69;5096386;28;20040;-87
2023/07/12 03:40:56;;;;;;;9.25;2.53;;;;;;;17.64;92.59;100877.75;5071562;28;20034;-88
2023/07/12 03:43:22;;;;;;;11.70;2.67;;;;;;;17.63;92.75;100884.00;5095223;28;20073;-87
2023/07/12 03:45:48;;;;;;;9.35;2.75;;;;;;;17.64;92.83;100885.69;5093358;28;20029;-87
2023/07/12 03:48:13;;;;;;;7.82;2.58;;;;;;;17.65;92.72;100887.41;5093523;28;20038;-88
2023/07/12 03:50:43;;;;;;;4.93;2.33;;;;;;;17.63;92.58;100884.84;5096545;28;20050;-88
2023/07/12 03:53:08;;;;;;;9.95;2.97;;;;;;;17.62;92.66;100888.44;5070667;28;20490;-88
2023/07/12 03:55:39;;;;;;;7.93;2.67;;;;;;;17.62;92.86;100883.16;5078663;28;20083;-88
2023/07/12 03:58:06;;;;;;;6.78;2.85;;;;;;;17.63;92.71;100897.25;5079158;28;20055;-88
2023/07/12 04:00:32;;;;;;;4.95;2.38;;;;;;;17.63;92.70;100892.78;5079142;28;20031;-87
2023/07/12 04:02:57;;;;;;;8.02;2.33;;;;;;;17.63;92.38;100886.66;5095488;28;20107;-87
2023/07/12 04:05:23;;;;;;;4.95;2.47;;;;;;;17.61;92.13;100896.50;5078698;28;20430;-88
2023/07/12 04:07:48;;;;;;;11.32;3.60;;;;;;;17.58;92.40;100899.38;5070673;28;20085;-87
2023/07/12 04:10:13;;;;;;;6.05;2.70;;;;;;;17.58;92.63;100899.38;5075609;28;20028;-87
2023/07/12 04:12:39;;;;;;;6.70;2.72;;;;;;;17.57;92.33;100895.00;5097516;28;20031;-88
2023/07/12 04:15:05;;;;;;;9.40;3.05;;;;;;;17.56;92.65;100898.63;5096688;28;20040;-87
2023/07/12 04:17:31;;;;;;;5.55;2.70;;;;;;;17.57;92.46;100898.53;5077957;28;20047;-88
2023/07/12 04:19:58;;;;;;;6.90;2.88;;;;;;;17.56;92.61;100894.19;5096873;28;20224;-87
2023/07/12 04:22:23;;;;;;;8.20;3.35;;;;;;;17.55;93.04;100899.56;5095741;28;20335;-87
2023/07/12 04:24:49;;;;;;;8.45;2.90;;;;;;;17.53;93.25;100904.97;5078990;28;20032;-87
2023/07/12 04:27:15;;;;;;;5.20;2.90;;;;;;;17.53;92.86;100896.19;5096428;28;20232;-88
2023/07/12 04:29:40;;;;;;;7.28;3.05;;;;;;;17.51;93.22;100911.34;5093922;28;20042;-88
2023/07/12 04:32:06;;;;;;;5.50;2.75;;;;;;;17.51;93.06;100898.94;5085892;28;20040;-88
2023/07/12 04:34:31;;;;;;;8.07;3.10;;;;;;;17.51;93.36;100903.38;5090509;28;20047;-87
2023/07/12 04:36:57;;;;;;;8.82;3.53;;;;;;;17.51;93.18;100914.81;5096635;28;20035;-88
2023/07/12 04:39:22;;;;;;;11.20;3.92;;;;;;;17.49;93.65;100922.03;5083270;28;20345;-87
2023/07/12 04:41:47;;;;;;;11.43;4.38;;;;;;;17.49;93.54;100924.66;5076779;28;20057;-87
2023/07/12 04:44:13;;;;;;;7.32;3.20;;;;;;;17.50;93.29;100929.03;5096290;28;20050;-87
2023/07/12 04:46:38;;;;;;;4.40;3.17;;;;;;;17.51;93.77;100924.56;5094927;28;20035;-88
2023/07/12 04:49:04;;;;;;;8.23;3.53;;;;;;;17.50;93.70;100922.88;5078601;28;20070;-88
2023/07/12 04:51:29;;;;;;;8.57;3.97;;;;;;;17.46;94.19;100922.22;5095459;28;20057;-87
2023/07/12 04:53:55;;;;;;;10.43;3.92;;;;;;;17.45;94.42;100926.69;5093088;28;20099;-87
2023/07/12 04:56:20;;;;;;;12.13;3.83;;;;;;;17.45;94.40;100916.09;5096366;28;20027;-87
2023/07/12 04:58:46;;;;;;;8.98;3.78;;;;;;;17.46;94.67;100923.09;5095582;28;20093;-88
2023/07/12 05:01:13;;;;;;;15.95;4.10;;;;;;;17.48;94.65;100930.06;5077388;28;20268;-88
2023/07/12 05:03:38;;;;;;;5.43;3.35;;;;;;;17.49;94.58;100931.78;5095140;28;20088;-87
2023/07/12 05:06:04;;;;;;;11.20;3.45;;;;;;;17.50;94.40;100931.69;5095469;28;20067;-87
2023/07/12 05:08:29;;;;;;;10.00;3.67;;;;;;;17.50;94.50;100930.81;5094149;28;20350;-88
2023/07/12 05:11:01;;;;;;;8.65;3.35;;;;;;;17.49;94.50;100927.31;5079894;28;20103;-87
2023/07/12 05:13:27;;;;;;;7.38;3.10;;;;;;;17.50;94.49;100928.16;5094939;28;20240;-87
2023/07/12 05:15:53;;;;;;;8.43;3.45;;;;;;;17.49;94.92;100932.63;5091067;28;20226;-88
2023/07/12 05:18:19;;;;;;;7.13;3.95;;;;;;;17.52;95.16;100944.78;5077353;28;20032;-88
2023/07/12 05:20:45;;;;;;;7.05;3.55;;;;;;;17.51;94.77;100941.28;5096297;28;20027;-87
2023/07/12 05:23:10;;;;;;;10.20;3.60;;;;;;;17.51;94.83;100936.00;5095063;28;20395;-87
2023/07/12 05:25:36;;;;;;;7.15;3.10;;;;;;;17.53;94.85;100946.50;5093292;28;20044;-88
2023/07/12 05:28:02;;;;;;;8.82;4.00;;;;;;;17.53;95.11;100936.75;5088539;28;20090;-88
2023/07/12 05:30:29;;;;;;;9.88;3.60;;;;;;;17.51;94.86;100948.41;5085900;28;20051;-87
2023/07/12 05:32:55;;;;;;;7.90;3.40;;;;;;;17.52;95.17;100948.31;5083816;28;20388;-87
2023/07/12 05:35:20;;;;;;;10.60;3.72;;;;;;;17.54;95.02;100948.19;5073600;28;20317;-87
2023/07/12 05:37:46;;;;;;;12.20;3.72;;;;;;;17.57;94.73;100955.91;5092158;28;20036;-87
2023/07/12 05:40:13;;;;;;;12.98;3.40;;;;;;;17.58;95.12;100950.53;5084176;28;20024;-87
2023/07/12 05:42:41;;;;;;;10.90;3.95;;;;;;;17.60;95.15;100948.59;5091714;28;20016;-87
2023/07/12 05:45:13;;;;;;;8.18;3.00;;;;;;;17.59;95.21;100949.56;5092596;28;20031;-88
2023/07/12 05:47:38;;;;;;;13.73;4.50;;;;;;;17.58;95.04;100953.16;5093400;28;20354;-88
2023/07/12 05:50:06;;;;;;;17.60;4.47;;;;;;;17.58;95.36;100957.63;5100741;28;20047;-87
2023/07/12 05:52:31;;;;;;;10.43;3.33;;;;;;;17.58;95.46;100971.69;5093473;28;20321;-87
2023/07/12 05:54:57;;;;;;;14.75;3.95;;;;;;;17.58;95.56;100965.56;5090831;28;20091;-87
2023/07/12 05:57:22;;;;;;;13.18;3.80;;;;;;;17.56;95.22;100960.38;5067765;28;20012;-87
2023/07/12 05:59:48;;;;;;;17.20;3.72;;;;;;;17.59;95.19;100969.91;5093171;28;20031;-88
2023/07/12 06:02:14;;;;;;;11.40;3.30;;;;;;;17.61;95.34;100973.31;5094220;28;20385;-88
2023/07/12 06:04:40;;;;;;;10.48;3.30;;;;;;;17.64;95.50;100966.00;5090123;28;20048;-88
2023/07/12 06:07:05;;;;;;;16.33;3.13;;;;;;;17.70;94.88;100974.47;5094952;28;20043;-87
2023/07/12 06:09:31;;;;;;;10.18;3.05;;;;;;;17.73;94.36;100977.75;5094758;28;20053;-87
2023/07/12 06:11:56;;;;;;;7.30;2.50;;;;;;;17.75;93.93;100970.53;5095204;28;20055;-87
2023/07/12 06:14:21;;;;;;;13.68;3.97;;;;;;;17.78;93.76;100974.78;5094145;28;20039;-86
2023/07/12 06:16:47;;;;;;;11.70;3.17;;;;;;;17.81;93.46;100977.25;5095165;28;20339;-87
2023/07/12 06:19:13;;;;;;;12.85;3.53;;;;;;;17.83;93.46;100989.41;5072772;28;20127;-87
2023/07/12 06:21:38;;;;;;;8.68;2.97;;;;;;;17.85;93.13;100986.69;5094642;28;20024;-87
2023/07/12 06:24:05;;;;;;;13.73;3.45;;;;;;;17.82;93.07;100990.34;5093590;28;20349;-88
2023/07/12 06:26:32;;;;;;;8.45;2.40;;;;;;;17.82;92.58;100987.72;5095201;28;20366;-87
2023/07/12 06:28:59;;;;;;;7.75;2.22;;;;;;;17.84;92.52;100999.06;5098197;28;20031;-85
2023/07/12 06:31:25;;;;;;;11.40;2.80;;;;;;;17.88;92.22;100991.75;5081130;28;20032;-88
2023/07/12 06:33:50;;;;;;;8.30;2.70;;;;;;;17.91;91.79;101002.16;5097663;28;20340;-87
2023/07/12 06:36:16;;;;;;;7.32;1.90;;;;;;;17.92;91.38;100997.69;5075405;28;20028;-88
2023/07/12 06:38:41;;;;;;;5.88;2.47;;;;;;;17.94;91.06;100996.66;5092928;28;20363;-88
2023/07/12 06:41:07;;;;;;;9.10;2.20;;;;;;;17.97;90.96;100998.22;5091044;28;20111;-88
2023/07/12 06:43:32;;;;;;;12.40;3.10;;;;;;;17.99;90.99;100997.19;5098089;28;20031;-88
2023/07/12 06:45:58;;;;;;;6.10;2.25;;;;;;;18.02;90.88;100999.59;5080346;28;20032;-88
2023/07/12 06:48:23;;;;;;;10.05;3.35;;;;;;;18.07;90.58;100994.00;5097897;28;20081;-87
2023/07/12 06:50:48;;;;;;;9.98;2.50;;;;;;;18.10;90.40;100998.22;5098275;28;20044;-87
2023/07/12 06:53:14;;;;;;;9.68;2.67;;;;;;;18.15;90.36;100998.75;5098295;28;20077;-87
2023/07/12 06:55:43;;;;;;;7.40;2.22;;;;;;;18.16;89.78;101003.13;5096531;28;20112;-88
2023/07/12 06:58:09;;;;;;;5.45;2.08;;;;;;;18.18;88.95;101012.66;5098265;28;20346;-88
2023/07/12 07:00:34;;;;;;;8.40;2.58;;;;;;;18.19;88.76;101024.97;5078846;28;20039;-85
2023/07/12 07:03:00;;;;;;;11.38;3.35;;;;;;;18.18;88.75;101025.91;5087809;28;20058;-89
2023/07/12 07:05:25;;;;;;;6.78;2.40;;;;;;;18.20;88.89;101031.09;5094402;28;20539;-87
2023/07/12 07:07:51;;;;;;;5.90;2.08;;;;;;;18.23;88.58;101015.81;5078952;28;20111;-88
2023/07/12 07:10:16;;;;;;;6.65;2.25;;;;;;;18.25;87.84;101022.84;5107188;28;20300;-88
2023/07/12 07:12:42;;;;;;;9.73;2.78;;;;;;;18.25;87.84;101031.63;5107706;28;20036;-89
2023/07/12 07:15:07;;;;;;;10.68;2.55;;;;;;;18.28;88.10;101034.06;5101781;28;20036;-88
2023/07/12 07:17:33;;;;;;;6.80;2.63;;;;;;;18.27;88.03;101036.81;5106403;28;20023;-88
2023/07/12 07:19:58;;;;;;;9.35;2.33;;;;;;;18.27;88.12;101044.78;5105559;28;20031;-88
2023/07/12 07:22:24;;;;;;;8.30;2.50;;;;;;;18.26;87.88;101056.31;5104889;28;20076;-87
2023/07/12 07:24:49;;;;;;;5.78;2.30;;;;;;;18.27;87.88;101052.72;5082494;28;20322;-88
2023/07/12 07:27:15;;;;;;;4.80;1.85;;;;;;;18.31;87.78;101059.50;5105176;28;20035;-88
2023/07/12 07:29:40;;;;;;;7.85;2.58;;;;;;;18.33;87.47;101050.47;5101816;28;20050;-88
2023/07/12 07:32:06;;;;;;;10.68;3.03;;;;;;;18.38;87.16;101058.13;5102990;28;20051;-88
2023/07/12 07:34:32;;;;;;;7.55;2.17;;;;;;;18.42;86.99;101054.28;5098863;28;20040;-88
2023/07/12 07:36:57;;;;;;;8.43;2.10;;;;;;;18.46;86.40;101061.06;5101976;28;20258;-87
2023/07/12 07:39:23;;;;;;;5.43;2.00;;;;;;;18.46;85.97;101073.50;5097817;28;20035;-88
2023/07/12 07:41:49;;;;;;;4.18;1.90;;;;;;;18.44;85.86;101065.63;5102881;28;20466;-87
2023/07/12 07:44:14;;;;;;;6.55;2.30;;;;;;;18.47;86.00;101075.19;5105191;28;20082;-88
2023/07/12 07:46:39;;;;;;;3.85;2.00;;;;;;;18.49;85.80;101079.44;5085399;28;20031;-88
2023/07/12 07:49:05;;;;;;;8.98;2.45;;;;;;;18.52;85.09;101083.66;5093248;28;20270;-88
2023/07/12 07:51:34;;;;;;;4.88;2.00;;;;;;;18.53;85.27;101083.56;5087723;28;20340;-88
2023/07/12 07:53:59;;;;;;;6.25;1.73;;;;;;;18.53;85.01;101091.50;5078245;28;20097;-88
2023/07/12 07:56:27;;;;;;;3.75;1.85;;;;;;;18.52;85.00;101103.09;5084017;28;20257;-87
2023/07/12 07:58:52;;;;;;;3.42;1.60;;;;;;;18.56;84.72;101103.72;5102534;28;20100;-86
2023/07/12 08:01:17;;;;;;;10.52;2.50;;;;;;;18.58;84.73;101104.47;5104536;28;20041;-86
2023/07/12 08:03:43;;;;;;;3.97;1.67;;;;;;;18.61;84.69;101104.25;5093820;28;20350;-87
2023/07/12 08:06:08;;;;;;;7.47;2.35;;;;;;;18.64;84.36;101105.81;5090148;28;20071;-87
2023/07/12 08:08:34;;;;;;;6.18;2.20;;;;;;;18.69;84.32;101103.72;5096259;28;20051;-87
2023/07/12 08:11:00;;;;;;;6.55;1.80;;;;;;;18.75;84.02;101106.75;5100791;28;20032;-88
2023/07/12 08:13:26;;;;;;;6.07;2.08;;;;;;;18.79;83.87;101110.03;5093757;28;20062;-88
2023/07/12 08:15:54;;;;;;;3.85;1.50;;;;;;;18.82;83.72;101107.22;5095499;28;20044;-86
2023/07/12 08:18:20;;;;;;;4.45;2.00;;;;;;;18.82;82.96;101109.03;5090839;28;20024;-87
2023/07/12 08:20:46;;;;;;;4.55;1.55;;;;;;;18.83;82.83;101113.34;5096452;28;20104;-88
2023/07/12 08:23:11;;;;;;;2.50;1.20;;;;;;;18.87;83.02;101120.16;5095588;28;20204;-89
2023/07/12 08:25:36;;;;;;;2.80;1.23;;;;;;;18.88;82.85;101112.09;5093787;28;20048;-87
2023/07/12 08:28:02;;;;;;;4.25;1.85;;;;;;;18.89;83.12;101121.72;5090864;28;20036;-88
2023/07/12 08:30:27;;;;;;;6.93;2.22;;;;;;;18.90;83.18;101136.72;5091905;28;20035;-87
2023/07/12 08:32:53;;;;;;;5.80;2.17;;;;;;;18.87;82.75;101142.22;5091302;28;20040;-87
2023/07/12 08:35:18;;;;;;;8.98;3.13;;;;;;;18.87;83.01;101130.78;5073972;28;20028;-88
2023/07/12 08:37:44;;;;;;;4.30;1.65;;;;;;;18.88;82.80;101141.28;5091754;28;20031;-87
2023/07/12 08:40:14;;;;;;;3.17;1.50;;;;;;;18.89;82.70;101140.31;5073121;28;20024;-87
2023/07/12 08:42:41;;;;;;;5.38;1.65;;;;;;;18.88;82.28;101141.28;5093304;28;20046;-88
2023/07/12 08:45:25;;;;;;;2.30;1.30;;;;;;;18.95;82.21;101141.69;5071688;28;20413;-89
2023/07/12 08:47:57;;;;;;;3.97;1.80;;;;;;;19.02;82.57;101139.44;5075193;28;20038;-88
2023/07/12 08:50:24;;;;;;;5.25;2.10;;;;;;;19.09;82.11;101148.66;5079907;28;20064;-88
2023/07/12 08:52:50;;;;;;;4.43;1.83;;;;;;;19.07;81.62;101145.28;5081487;28;20138;-88
2023/07/12 08:55:19;;;;;;;6.00;2.10;;;;;;;19.04;81.46;101148.97;5099725;28;20028;-88
2023/07/12 08:57:51;;;;;;;4.28;1.70;;;;;;;19.03;81.25;101154.41;5104124;28;20036;-87
2023/07/12 09:00:22;;;;;;;7.10;2.15;;;;;;;19.01;81.11;101151.88;5078016;28;20039;-88
2023/07/12 09:02:48;;;;;;;7.57;2.10;;;;;;;18.99;80.53;101164.38;5093545;28;20042;-87
2023/07/12 09:05:22;;;;;;;6.80;2.40;;;;;;;18.95;80.08;101162.91;5094653;28;20044;-88
2023/07/12 09:08:08;;;;;;;2.13;1.52;;;;;;;18.95;80.48;101162.91;5093639;28;20028;-87
2023/07/12 09:11:06;;;;;;;3.55;1.33;;;;;;;18.96;80.78;101167.28;5089160;28;20039;-89
2023/07/12 09:13:38;;;;;;;6.15;1.73;;;;;;;19.04;80.72;101170.22;5060130;28;20342;-87
2023/07/12 09:16:18;;;;;;;6.68;2.00;;;;;;;19.05;80.87;101163.13;5095255;28;20091;-88
2023/07/12 09:18:52;;;;;;;5.40;1.88;;;;;;;19.07;80.42;101171.81;5094307;28;20099;-89
2023/07/12 09:21:26;;;;;;;4.88;1.65;;;;;;;19.11;80.45;101165.31;5076571;28;20277;-89
2023/07/12 09:23:54;;;;;;;5.30;1.70;;;;;;;19.16;80.04;101155.22;5095520;28;20043;-87
2023/07/12 09:26:30;;;;;;;7.45;1.90;;;;;;;19.21;79.81;101168.16;5093643;28;20083;-87
2023/07/12 09:29:06;;;;;;;7.63;2.03;;;;;;;19.30;79.36;101167.50;5070146;28;20039;-88
2023/07/12 09:31:34;;;;;;;2.42;1.52;;;;;;;19.33;79.41;101170.78;5092589;28;20243;-88
2023/07/12 09:34:05;;;;;;;2.58;1.70;;;;;;;19.37;78.83;101164.31;5091191;28;20188;-88
2023/07/12 09:36:35;;;;;;;4.13;1.85;;;;;;;19.34;78.59;101171.66;5092026;28;20020;-88
2023/07/12 09:39:03;;;;;;;9.02;2.10;;;;;;;19.32;79.20;101177.06;5097349;28;20215;-88
2023/07/12 09:41:28;;;;;;;5.77;1.90;;;;;;;19.28;79.32;101178.25;5092422;28;20055;-88
2023/07/12 09:43:56;;;;;;;2.78;1.60;;;;;;;19.28;79.47;101170.28;5093552;28;20032;-88
2023/07/12 09:46:30;;;;;;;4.30;1.87;;;;;;;19.30;79.54;101173.69;5092704;28;20112;-89
2023/07/12 09:49:17;;;;;;;2.30;1.60;;;;;;;19.31;79.43;101179.81;5086726;28;20039;-88
2023/07/12 09:51:51;;;;;;;3.03;1.40;;;;;;;19.31;79.55;101174.50;5090637;28;20047;-88
2023/07/12 09:54:44;;;;;;;2.58;1.40;;;;;;;19.29;79.35;101173.78;5089258;28;20479;-88
2023/07/12 09:57:16;;;;;;;3.75;1.70;;;;;;;19.26;79.43;101176.66;5090539;28;20313;-88
2023/07/12 09:59:41;;;;;;;3.38;1.80;;;;;;;19.25;78.76;101180.28;5094307;28;20330;-88
2023/07/12 10:02:24;;;;;;;3.38;1.40;;;;;;;19.26;79.13;101182.78;5091984;28;20042;-88
2023/07/12 10:04:54;;;;;;;4.13;2.08;;;;;;;19.25;78.95;101162.53;5091890;28;20070;-87
2023/07/12 10:07:37;;;;;;;4.82;1.88;;;;;;;19.23;79.44;101169.75;5092098;28;20052;-87
2023/07/12 10:10:25;;;;;;;2.08;1.58;;;;;;;19.22;79.62;101173.38;5095270;28;20051;-88
2023/07/12 10:13:02;;;;;;;3.95;1.92;;;;;;;19.19;79.49;101176.22;5092133;28;20219;-87
2023/07/12 10:15:33;;;;;;;4.53;2.30;;;;;;;19.18;79.51;101185.16;5088918;28;20247;-87
2023/07/12 10:17:59;;;;;;;4.50;1.65;;;;;;;19.19;79.59;101165.59;5086203;28;20055;-86
2023/07/12 10:20:25;;;;;;;9.07;2.45;;;;;;;19.15;79.65;101182.72;5072646;28;20024;-89
2023/07/12 10:22:53;;;;;;;4.07;1.67;;;;;;;19.16;79.47;101187.94;5093313;28;20063;-89
2023/07/12 10:25:28;;;;;;;4.50;2.20;;;;;;;19.14;79.49;101192.50;5093583;28;20090;-88
2023/07/12 10:28:03;;;;;;;4.10;2.00;;;;;;;19.13;79.69;101192.59;5092340;28;20036;-88
2023/07/12 10:30:32;;;;;;;9.35;2.35;;;;;;;19.12;79.70;101193.59;5072887;28;20043;-88
2023/07/12 10:33:22;;;;;;;3.83;2.10;;;;;;;19.09;79.54;101193.78;5065050;28;20032;-88
2023/07/12 10:35:50;;;;;;;5.47;2.28;;;;;;;19.14;80.07;101191.66;5093404;28;20035;-88
2023/07/12 10:38:18;;;;;;;;;;;;;;;19.18;80.08;101182.50;5075906;28;20035;-88
2023/07/12 10:40:52;;;;;;;4.07;2.13;;;;;;;19.18;79.55;101193.97;5082751;28;20117;-89
2023/07/12 10:43:37;;;;;;;3.22;1.70;;;;;;;19.15;79.17;101207.47;5094408;28;20308;-88
2023/07/12 10:46:23;;;;;;;2.25;1.50;;;;;;;19.14;78.92;101197.81;5096707;28;20234;-89
2023/07/12 10:48:51;;;;;;;8.40;2.60;;;;;;;19.12;78.99;101206.84;5092720;28;20058;-87
2023/07/12 10:51:39;;;;;;;5.13;1.92;;;;;;;19.09;79.39;101212.38;5092906;28;20096;-88
2023/07/12 10:54:21;;;;;;;3.35;1.77;;;;;;;19.09;79.30;101213.22;5073450;28;20032;-88
2023/07/12 10:57:01;;;;;;;2.47;1.55;;;;;;;19.13;79.35;101220.00;5070109;28;20039;-88
2023/07/12 10:59:32;;;;;;;3.63;1.60;;;;;;;19.19;78.96;101224.00;5071906;28;20077;-88
2023/07/12 11:02:04;;;;;;;2.78;1.60;;;;;;;19.23;78.98;101222.00;5094232;28;20039;-88
2023/07/12 11:04:29;;;;;;;4.68;1.90;;;;;;;19.23;78.87;101227.31;5092154;28;20035;-87
2023/07/12 11:07:24;;;;;;;6.23;2.00;;;;;;;19.25;78.59;101228.06;5094511;28;20074;-88
2023/07/12 11:09:54;;;;;;;4.63;1.75;;;;;;;19.28;78.34;101225.19;5067883;28;20294;-88
2023/07/12 11:12:31;;;;;;;6.10;2.17;;;;;;;19.30;77.25;101231.22;5094376;28;20031;-88
2023/07/12 11:15:23;;;;;;;2.00;1.40;;;;;;;19.31;77.80;101230.28;5091478;28;20034;-88
2023/07/12 11:17:48;;;;;;;3.28;1.67;;;;;;;19.31;77.12;101239.09;5096895;28;20036;-87
2023/07/12 11:20:25;;;;;;;2.38;1.42;;;;;;;19.32;77.50;101243.44;5095090;28;20038;-88
2023/07/12 11:23:05;;;;;;;4.07;1.83;;;;;;;19.31;76.15;101244.41;5091865;28;20032;-87
2023/07/12 11:25:52;;;;;;;2.33;1.50;;;;;;;19.30;76.12;101241.84;5098558;28;20042;-88
2023/07/12 11:28:21;;;;;;;4.15;1.73;;;;;;;19.32;76.81;101238.13;5081855;28;20061;-87
2023/07/12 11:31:03;;;;;;;3.83;1.30;;;;;;;19.36;76.81;101241.44;5097001;28;20027;-86